Time;durP1;ratioP1;P1;durP2;ratioP2;P2;SDS_P1;SDS_P2;PMS_P1;PMS_P2;Temp;Humidity;BMP_temperature;BMP_pressure;BME280_temperature;BME280_humidity;BME280_pressure;Samples;Min_cycle;Max_cycle;Signal;HPM_P1;HPM_P2
2023/02/16 00:00:19;;;;;;;50.13;29.23;;;2.50;99.90;;;2.36;78.94;101158.25;5050471;28;20241;-63
2023/02/16 00:02:48;;;;;;;56.60;28.80;;;2.50;99.90;;;2.31;78.92;101167.34;5047138;28;20210;-66
2023/02/16 00:05:25;;;;;;;55.57;29.00;;;2.50;99.90;;;2.30;78.81;101165.63;5053225;28;20560;-64
2023/02/16 00:07:57;;;;;;;57.10;29.50;;;2.50;99.90;;;2.28;79.24;101162.13;5052585;28;20267;-64
2023/02/16 00:10:27;;;;;;;48.73;27.83;;;2.40;99.90;;;2.23;78.75;101158.53;5053327;28;20214;-66
2023/02/16 00:15:44;;;;;;;62.13;31.93;;;2.40;99.90;;;2.17;79.38;101148.13;5051689;28;20202;-66
2023/02/16 00:18:19;;;;;;;54.27;30.30;;;2.30;99.90;;;2.14;79.58;101141.25;5050369;28;20289;-64
2023/02/16 00:20:48;;;;;;;58.60;30.83;;;2.30;99.90;;;2.09;79.76;101141.88;5052332;28;20256;-63
2023/02/16 00:23:17;;;;;;;60.03;33.20;;;2.30;99.90;;;2.09;78.95;101126.63;5053091;28;20206;-64
2023/02/16 00:25:45;;;;;;;55.57;31.67;;;2.30;99.90;;;2.08;79.88;101135.91;5053231;28;20241;-65
2023/02/16 00:28:19;;;;;;;61.20;30.73;;;2.20;99.90;;;2.05;79.12;101122.22;5052222;28;20250;-63
2023/02/16 00:30:48;;;;;;;53.13;28.47;;;2.20;99.90;;;2.05;79.82;101122.22;5049370;28;20209;-64
2023/02/16 00:33:19;;;;;;;59.40;30.97;;;2.30;99.90;;;2.03;79.69;101113.69;5052042;28;20234;-65
2023/02/16 00:35:48;;;;;;;55.53;32.03;;;2.20;99.90;;;2.04;79.60;101113.72;5050004;28;20272;-64
2023/02/16 00:38:17;;;;;;;55.83;30.97;;;2.20;99.90;;;2.04;79.57;101101.03;5053809;28;20236;-64
2023/02/16 00:40:45;;;;;;;50.33;29.47;;;2.20;99.90;;;2.05;80.22;101102.75;5050543;28;20210;-67
2023/02/16 00:43:25;;;;;;;56.03;31.07;;;2.30;99.90;;;2.06;79.67;101101.06;5052349;28;20814;-65
2023/02/16 00:45:55;;;;;;;54.37;29.47;;;2.30;99.90;;;2.08;79.49;101090.16;5053790;28;20311;-64
2023/02/16 00:48:24;;;;;;;58.47;32.37;;;2.30;99.90;;;2.08;79.37;101094.38;5050833;28;20229;-65
2023/02/16 00:50:53;;;;;;;59.43;31.37;;;2.20;99.90;;;2.06;79.11;101096.88;5049149;28;20246;-66
2023/02/16 00:53:21;;;;;;;57.47;30.50;;;2.20;99.90;;;2.07;79.15;101087.56;5053832;28;20218;-65
2023/02/16 00:55:49;;;;;;;60.23;31.13;;;2.30;99.90;;;2.10;79.44;101092.75;5053101;28;20236;-64
2023/02/16 00:58:25;;;;;;;51.13;29.87;;;2.30;99.90;;;2.06;79.23;101089.25;5053651;28;20228;-64
2023/02/16 01:00:58;;;;;;;54.60;31.03;;;2.20;99.90;;;2.06;79.54;101078.19;5049863;28;20209;-67
2023/02/16 01:03:28;;;;;;;54.80;30.93;;;2.20;99.90;;;2.06;79.19;101086.72;5047475;28;20301;-64
2023/02/16 01:11:40;;;;;;;53.87;29.17;;;2.20;99.90;;;2.07;78.99;101072.31;4998429;28;20590;-65
2023/02/16 01:14:13;;;;;;;57.57;30.17;;;2.20;99.90;;;2.05;79.68;101082.41;4989957;28;20631;-65
2023/02/16 01:16:42;;;;;;;51.30;28.00;;;2.20;99.90;;;2.06;79.62;101075.66;5014117;28;20318;-65
2023/02/16 01:19:11;;;;;;;57.13;31.43;;;2.20;99.90;;;2.04;79.41;101073.06;5050671;28;20206;-63
2023/02/16 01:21:40;;;;;;;55.40;31.10;;;2.30;99.90;;;2.07;79.46;101073.19;5045401;28;20729;-65
2023/02/16 01:24:09;;;;;;;58.13;31.67;;;2.20;99.90;;;2.07;78.63;101072.31;5051209;28;20715;-68
2023/02/16 01:26:40;;;;;;;54.23;29.87;;;2.20;99.90;;;2.07;78.93;101072.31;5051840;28;20258;-66
2023/02/16 01:29:15;;;;;;;56.40;31.77;;;2.20;99.90;;;2.06;79.61;101068.03;5052945;28;20237;-64
2023/02/16 01:31:44;;;;;;;58.57;32.20;;;2.20;99.90;;;2.03;78.94;101058.63;5049245;28;20328;-66
2023/02/16 01:34:13;;;;;;;54.87;31.90;;;2.20;99.90;;;2.03;78.46;101052.69;5048317;28;20209;-65
2023/02/16 01:36:44;;;;;;;55.50;30.43;;;2.10;99.90;;;2.03;79.50;101051.00;5050857;28;20248;-64
2023/02/16 01:39:15;;;;;;;56.77;32.57;;;2.20;99.90;;;2.03;79.32;101053.53;5049404;28;20277;-66
2023/02/16 01:42:13;;;;;;;58.10;31.77;;;2.10;99.90;;;2.01;79.52;101049.19;5051457;28;20661;-64
2023/02/16 01:44:48;;;;;;;58.37;31.77;;;2.10;99.90;;;2.00;78.72;101045.78;5051227;28;20201;-65
2023/02/16 01:47:36;;;;;;;57.07;31.70;;;2.10;99.90;;;1.97;78.86;101038.03;5052336;28;20198;-64
2023/02/16 01:50:18;;;;;;;58.43;32.00;;;2.10;99.90;;;1.96;79.61;101043.06;5050715;28;20210;-65
2023/02/16 01:52:55;;;;;;;61.27;31.60;;;2.10;99.90;;;1.97;79.04;101044.81;5043352;28;20605;-65
2023/02/16 01:55:29;;;;;;;56.57;30.87;;;2.10;99.90;;;1.93;78.65;101029.44;5050003;28;20251;-68
2023/02/16 01:58:05;;;;;;;61.97;32.83;;;2.10;99.90;;;1.94;78.58;101032.84;5052118;28;20197;-69
2023/02/16 02:01:29;;;;;;;55.77;30.90;;;2.10;99.90;;;1.92;78.75;101031.91;5048500;28;20256;-69
2023/02/16 02:06:44;;;;;;;57.07;31.70;;;2.00;99.90;;;1.91;78.57;101030.16;5051852;28;20654;-68
2023/02/16 02:09:20;;;;;;;59.43;31.87;;;2.00;99.90;;;1.89;79.32;101017.41;5050017;28;20230;-69
2023/02/16 02:11:55;;;;;;;58.00;30.37;;;2.10;99.90;;;1.88;79.21;101015.69;5053086;28;20245;-69
2023/02/16 02:14:30;;;;;;;55.60;30.40;;;2.00;99.90;;;1.90;79.11;101026.75;5048412;28;20618;-70
2023/02/16 02:17:04;;;;;;;53.93;29.40;;;2.10;99.90;;;1.88;79.02;101023.31;5048621;28;20240;-70
2023/02/16 02:19:45;;;;;;;55.40;30.27;;;2.00;99.90;;;1.89;79.34;101026.72;5048941;28;20221;-69
2023/02/16 02:26:47;;;;;;;58.57;31.07;;;2.00;99.90;;;1.88;79.10;101020.78;5023500;28;20702;-70
2023/02/16 02:30:01;;;;;;;56.67;30.37;;;2.00;99.90;;;1.83;79.16;101012.09;5047684;28;20287;-68
2023/02/16 02:32:43;;;;;;;55.87;31.70;;;2.00;99.90;;;1.83;78.97;101006.13;5044693;28;20245;-69
2023/02/16 02:35:29;;;;;;;57.23;30.77;;;2.00;99.90;;;1.82;79.21;101002.72;5047809;28;20206;-68
2023/02/16 02:38:06;;;;;;;57.17;32.40;;;2.00;99.90;;;1.82;79.50;101009.50;5050096;28;20252;-70
2023/02/16 02:40:52;;;;;;;59.30;32.63;;;1.90;99.90;;;1.80;78.65;100999.25;5050323;28;20276;-68
2023/02/16 02:43:31;;;;;;;51.70;29.30;;;1.90;99.90;;;1.81;79.15;101000.16;5050216;28;20202;-70
2023/02/16 02:46:07;;;;;;;56.30;31.47;;;1.90;99.90;;;1.80;78.97;100995.84;5053673;28;20224;-70
2023/02/16 02:48:36;;;;;;;56.27;29.97;;;1.90;99.90;;;1.79;79.76;100997.53;5053157;28;20242;-69
2023/02/16 02:51:29;;;;;;;58.67;31.00;;;1.90;99.90;;;1.82;78.91;100996.78;5053535;28;20295;-69
2023/02/16 03:02:36;;;;;;;55.57;31.50;;;1.90;99.90;;;1.81;78.60;100983.22;5051670;28;20198;-69
2023/02/16 03:05:07;;;;;;;53.33;30.80;;;1.90;99.90;;;1.80;79.12;100971.31;5056783;28;20244;-70
2023/02/16 03:07:47;;;;;;;53.07;29.97;;;1.90;99.90;;;1.81;78.84;100975.59;5059469;28;20626;-70
2023/02/16 03:13:12;;;;;;;53.70;31.30;;;1.90;99.90;;;1.75;78.90;100955.03;5053039;28;20227;-66
2023/02/16 03:15:42;;;;;;;56.07;30.53;;;2.00;99.90;;;1.76;79.02;100954.22;5052005;28;20286;-65
2023/02/16 03:29:26;;;;;;;56.20;32.17;;;1.80;99.90;;;1.69;78.79;100952.25;5047258;28;20283;-66
2023/02/16 03:31:56;;;;;;;55.07;30.67;;;1.80;99.90;;;1.68;79.34;100948.84;5052291;28;20217;-68
2023/02/16 03:34:28;;;;;;;55.50;33.40;;;1.80;99.90;;;1.68;78.76;100950.50;5051197;28;20233;-67
2023/02/16 03:36:59;;;;;;;63.20;32.00;;;1.80;99.90;;;1.63;79.22;100945.25;5042209;28;20252;-67
2023/02/16 03:39:30;;;;;;;54.77;31.77;;;1.70;99.90;;;1.63;78.43;100945.25;5050733;28;20182;-67
2023/02/16 03:41:59;;;;;;;57.40;32.33;;;1.80;99.90;;;1.62;79.06;100946.06;5078303;28;20216;-67
2023/02/16 03:44:27;;;;;;;55.27;31.90;;;1.70;99.90;;;1.60;78.64;100941.72;5071446;28;20191;-69
2023/02/16 03:46:56;;;;;;;61.07;32.97;;;1.70;99.90;;;1.59;79.43;100934.94;5075795;28;20197;-68
2023/02/16 03:49:26;;;;;;;58.47;32.73;;;1.70;99.90;;;1.58;79.14;100928.09;5077017;28;20260;-67
2023/02/16 03:51:54;;;;;;;58.30;31.27;;;1.70;99.90;;;1.58;78.76;100928.94;5076961;28;20212;-67
2023/02/16 03:54:23;;;;;;;60.33;32.43;;;1.80;99.90;;;1.57;79.28;100922.16;5077037;28;20198;-67
2023/02/16 03:56:51;;;;;;;59.30;31.37;;;1.70;99.90;;;1.57;79.40;100911.13;5075285;28;20224;-67
2023/02/16 03:59:20;;;;;;;54.30;31.50;;;1.70;99.90;;;1.56;79.19;100914.47;5077174;28;20205;-67
2023/02/16 04:01:48;;;;;;;59.53;31.73;;;1.70;99.90;;;1.55;79.01;100905.16;5076481;28;20190;-66
2023/02/16 04:04:17;;;;;;;57.30;30.67;;;1.70;99.90;;;1.52;79.20;100910.97;5071831;28;20186;-67
2023/02/16 04:06:46;;;;;;;60.57;31.60;;;1.60;99.90;;;1.52;79.55;100913.50;5075764;28;20400;-68
2023/02/16 04:09:15;;;;;;;60.10;32.17;;;1.60;99.90;;;1.49;78.72;100913.38;5076165;28;20221;-68
2023/02/16 04:14:28;;;;;;;57.07;32.70;;;1.60;99.90;;;1.42;78.74;100903.78;5065850;28;20209;-68
2023/02/16 04:16:56;;;;;;;56.00;31.67;;;1.50;99.90;;;1.40;78.82;100901.19;5075808;28;20213;-70
2023/02/16 04:19:25;;;;;;;59.17;32.27;;;1.50;99.90;;;1.35;78.93;100889.97;5071309;28;20217;-69
2023/02/16 04:21:55;;;;;;;61.73;33.27;;;1.50;99.90;;;1.36;79.34;100895.91;5077007;28;20240;-69
2023/02/16 04:24:24;;;;;;;54.77;31.73;;;1.50;99.90;;;1.36;79.20;100899.34;5074964;28;20190;-69
2023/02/16 04:26:52;;;;;;;56.03;31.80;;;1.50;99.90;;;1.36;79.24;100891.72;5076177;28;20190;-70
2023/02/16 04:29:20;;;;;;;62.23;32.67;;;1.50;99.90;;;1.35;79.43;100892.50;5075742;28;20264;-69
2023/02/16 04:31:49;;;;;;;62.00;30.77;;;1.50;99.90;;;1.35;79.55;100889.97;5076385;28;20202;-67
2023/02/16 04:34:18;;;;;;;59.60;32.97;;;1.50;99.90;;;1.36;79.81;100895.91;5075759;28;20190;-67
2023/02/16 04:36:47;;;;;;;60.73;30.73;;;1.50;99.90;;;1.36;79.44;100896.81;5071242;28;20189;-71
2023/02/16 04:39:16;;;;;;;54.53;31.07;;;1.50;99.90;;;1.34;78.89;100888.25;5073631;28;20242;-68
2023/02/16 04:41:45;;;;;;;62.63;32.30;;;1.40;99.90;;;1.35;78.75;100892.50;5073310;28;20227;-69
2023/02/16 04:44:13;;;;;;;62.40;32.60;;;1.40;99.90;;;1.32;78.93;100894.94;5076143;28;20194;-67
2023/02/16 04:46:42;;;;;;;61.87;32.50;;;1.40;99.90;;;1.30;79.22;100900.78;5076307;28;20202;-68
2023/02/16 04:49:10;;;;;;;59.40;32.70;;;1.40;99.90;;;1.27;79.57;100893.03;5076817;28;20248;-68
2023/02/16 04:51:39;;;;;;;60.57;33.67;;;1.40;99.90;;;1.26;78.75;100889.63;5077456;28;20217;-67
2023/02/16 04:54:07;;;;;;;57.63;31.47;;;1.40;99.90;;;1.25;79.51;100887.88;5075004;28;20209;-68
2023/02/16 04:56:37;;;;;;;61.97;31.70;;;1.30;99.90;;;1.25;79.17;100905.66;5075022;28;20186;-68
2023/02/16 04:59:06;;;;;;;61.73;32.63;;;1.40;99.90;;;1.22;79.13;100892.84;5076275;28;20198;-67
2023/02/16 05:01:34;;;;;;;64.40;34.00;;;1.30;99.90;;;1.24;79.10;100906.47;5075722;28;20198;-68
2023/02/16 05:04:03;;;;;;;56.87;30.97;;;1.30;99.90;;;1.22;79.57;100895.41;5075740;28;20190;-67
2023/02/16 05:06:31;;;;;;;59.77;32.47;;;1.40;99.90;;;1.20;79.39;100891.91;5075697;28;20260;-67
2023/02/16 05:09:00;;;;;;;58.80;30.97;;;1.30;99.90;;;1.21;79.16;100891.09;5075898;28;20185;-68
2023/02/16 05:17:07;;;;;;;59.93;32.17;;;1.20;99.90;;;1.14;79.25;100889.13;5069448;28;20245;-67
2023/02/16 05:19:36;;;;;;;59.07;31.47;;;1.20;99.90;;;1.12;79.78;100880.59;5075924;28;20202;-69
2023/02/16 05:22:04;;;;;;;58.70;33.10;;;1.30;99.90;;;1.11;79.50;100883.94;5075209;28;20190;-68
2023/02/16 05:24:34;;;;;;;57.00;31.40;;;1.20;99.90;;;1.08;79.18;100876.22;5075006;28;20186;-67
2023/02/16 05:27:04;;;;;;;62.67;32.60;;;1.20;99.90;;;1.05;79.78;100879.47;5068328;28;20209;-68
2023/02/16 05:29:34;;;;;;;61.20;31.53;;;1.20;99.90;;;1.03;79.20;100880.22;5074920;28;20300;-67
2023/02/16 05:32:03;;;;;;;60.43;32.07;;;1.10;99.90;;;1.01;78.96;100879.31;5071972;28;20197;-68
2023/02/16 05:34:32;;;;;;;60.10;32.73;;;1.10;99.90;;;1.00;79.56;100875.91;5074120;28;20201;-67
2023/02/16 05:37:00;;;;;;;62.27;32.90;;;1.10;99.90;;;0.98;79.59;100876.63;5074138;28;20249;-68
2023/02/16 05:39:29;;;;;;;57.10;32.37;;;1.10;99.90;;;0.96;79.64;100872.38;5074662;28;20182;-67
2023/02/16 05:41:57;;;;;;;56.80;32.73;;;1.10;99.90;;;0.96;79.95;100879.13;5075101;28;20190;-67
2023/02/16 05:44:26;;;;;;;54.97;30.83;;;1.10;99.90;;;0.94;79.78;100873.97;5074494;28;20205;-68
2023/02/16 05:46:56;;;;;;;60.87;31.37;;;1.10;99.90;;;0.94;80.04;100879.03;5071622;28;20415;-68
2023/02/16 05:49:24;;;;;;;59.67;32.17;;;1.00;99.90;;;0.96;80.03;100874.06;5075135;28;20194;-67
2023/02/16 05:51:53;;;;;;;64.20;31.77;;;1.10;99.90;;;0.96;79.85;100874.91;5075280;28;20190;-69
2023/02/16 05:54:21;;;;;;;62.87;32.07;;;1.10;99.90;;;0.96;79.26;100881.66;5070883;28;20224;-68
2023/02/16 05:56:52;;;;;;;64.13;32.80;;;1.10;99.90;;;0.95;79.44;100868.09;5070617;28;20276;-67
2023/02/16 05:59:20;;;;;;;57.57;31.27;;;1.10;99.90;;;0.94;79.57;100868.91;5072142;28;20233;-68
2023/02/16 06:01:49;;;;;;;59.83;32.50;;;1.10;99.90;;;0.92;79.59;100852.75;5069435;28;20195;-68
2023/02/16 06:04:22;;;;;;;61.07;31.87;;;1.00;99.90;;;0.95;79.53;100857.94;5074397;28;20201;-68
2023/02/16 06:06:50;;;;;;;62.57;31.27;;;1.10;99.90;;;0.99;79.69;100858.91;5073887;28;20178;-69
2023/02/16 06:09:18;;;;;;;64.63;32.53;;;1.10;99.90;;;1.01;79.57;100861.53;5075768;28;20194;-70
2023/02/16 06:11:47;;;;;;;60.03;31.83;;;1.10;99.90;;;1.03;80.01;100870.06;5074526;28;20198;-69
2023/02/16 06:14:18;;;;;;;64.53;32.60;;;1.20;99.90;;;1.02;79.59;100879.34;5071129;28;20296;-69
2023/02/16 06:16:50;;;;;;;63.40;33.30;;;1.20;99.90;;;1.06;79.72;100880.34;5051808;28;20259;-72
2023/02/16 06:19:20;;;;;;;61.10;31.73;;;1.20;99.90;;;1.09;79.32;100875.41;5048599;28;20267;-69
2023/02/16 06:21:49;;;;;;;61.37;32.97;;;1.30;99.90;;;1.08;78.97;100863.53;5050930;28;20212;-71
2023/02/16 06:24:17;;;;;;;60.20;33.07;;;1.20;99.90;;;1.10;79.49;100859.34;5051316;28;20288;-74
2023/02/16 06:26:46;;;;;;;61.50;32.67;;;1.20;99.90;;;1.12;79.27;100863.69;5053586;28;20202;-70
2023/02/16 06:29:14;;;;;;;64.10;32.10;;;1.30;99.90;;;1.18;79.07;100863.09;5065531;28;20222;-70
2023/02/16 06:31:43;;;;;;;62.13;33.63;;;1.30;99.90;;;1.18;78.55;100863.09;5060191;28;20226;-71
2023/02/16 06:34:12;;;;;;;61.80;33.57;;;1.30;99.90;;;1.22;79.26;100856.47;5061928;28;20257;-67
2023/02/16 06:36:41;;;;;;;52.00;30.67;;;1.40;99.90;;;1.26;79.13;100863.38;5067800;28;20201;-70
2023/02/16 06:39:10;;;;;;;62.07;32.10;;;1.40;99.90;;;1.29;78.59;100849.13;5058169;28;20210;-69
2023/02/16 06:41:39;;;;;;;61.23;31.93;;;1.40;99.90;;;1.35;78.55;100854.44;5058629;28;20559;-69
2023/02/16 06:44:12;;;;;;;65.90;31.90;;;1.50;99.90;;;1.40;78.18;100864.75;5059289;28;20656;-71
2023/02/16 06:46:40;;;;;;;57.97;31.90;;;1.50;99.90;;;1.45;78.80;100851.44;5056486;28;20210;-70
2023/02/16 06:49:12;;;;;;;60.00;32.40;;;1.50;99.90;;;1.50;78.52;100858.38;5063066;28;20202;-72
2023/02/16 06:51:42;;;;;;;57.73;31.70;;;1.70;99.90;;;1.53;77.67;100854.28;5060997;28;20240;-67
2023/02/16 06:54:11;;;;;;;59.80;31.93;;;1.70;99.90;;;1.58;77.86;100852.75;5062192;28;20205;-71
2023/02/16 06:56:40;;;;;;;59.73;32.93;;;1.80;99.90;;;1.64;78.15;100853.00;5066632;28;20206;-68
2023/02/16 06:59:11;;;;;;;57.20;30.90;;;1.80;99.90;;;1.72;77.57;100852.41;5064880;28;20252;-71
2023/02/16 07:01:39;;;;;;;60.90;33.27;;;1.90;99.90;;;1.81;77.66;100861.25;5056536;28;20252;-67
2023/02/16 07:04:10;;;;;;;63.97;34.30;;;1.90;99.90;;;1.86;77.10;100856.34;5057506;28;20209;-71
2023/02/16 07:06:39;;;;;;;63.60;33.87;;;2.00;99.90;;;1.89;76.65;100857.31;5059445;28;20206;-70
2023/02/16 07:09:09;;;;;;;63.77;32.87;;;2.00;99.90;;;1.99;76.85;100853.44;5058013;28;20252;-73
2023/02/16 07:11:40;;;;;;;61.40;32.37;;;2.10;99.90;;;2.10;76.26;100851.25;5049491;28;20570;-71
2023/02/16 07:14:08;;;;;;;61.20;32.60;;;2.20;99.90;;;2.16;76.15;100843.84;5057729;28;20654;-67
2023/02/16 07:16:37;;;;;;;66.30;33.50;;;2.30;99.90;;;2.25;75.39;100836.56;5053717;28;20229;-72
2023/02/16 07:19:05;;;;;;;63.33;32.63;;;2.40;99.90;;;2.37;74.86;100834.44;5047642;28;20292;-70
2023/02/16 07:21:34;;;;;;;67.13;32.70;;;2.50;99.90;;;2.56;75.34;100846.09;5061706;28;20260;-67
2023/02/16 07:24:03;;;;;;;57.30;32.17;;;2.70;99.90;;;2.67;74.29;100849.00;5052594;28;20237;-66
2023/02/16 07:26:33;;;;;;;65.53;32.60;;;2.80;99.90;;;2.75;74.20;100845.03;5052566;28;20214;-65
2023/02/16 07:29:01;;;;;;;56.90;32.10;;;2.90;99.90;;;2.82;73.04;100851.19;5044719;28;20233;-64
2023/02/16 07:31:29;;;;;;;64.20;33.37;;;3.00;99.90;;;2.91;73.51;100848.97;5048481;28;20222;-64
2023/02/16 07:33:58;;;;;;;61.87;33.03;;;3.10;99.90;;;2.98;72.83;100845.75;5053777;28;20242;-64
2023/02/16 07:36:27;;;;;;;58.63;32.03;;;3.20;99.90;;;3.04;72.40;100832.38;5045043;28;20275;-65
2023/02/16 07:38:56;;;;;;;55.50;30.47;;;3.30;99.90;;;3.09;71.98;100833.38;5054403;28;20217;-66
2023/02/16 07:41:24;;;;;;;56.50;32.67;;;3.30;99.90;;;3.14;71.72;100831.84;5049208;28;20649;-67
2023/02/16 07:43:54;;;;;;;58.47;33.23;;;3.40;99.90;;;3.25;71.90;100819.47;5054569;28;20210;-66
2023/02/16 07:46:23;;;;;;;57.00;33.50;;;3.50;99.90;;;3.35;71.61;100824.88;5053814;28;20209;-66
2023/02/16 07:48:51;;;;;;;61.70;32.57;;;3.60;99.90;;;3.41;71.04;100820.78;5053971;28;20213;-68
2023/02/16 07:51:24;;;;;;;55.40;31.70;;;3.60;99.90;;;3.47;70.66;100831.16;5045019;28;20284;-69
2023/02/16 07:53:53;;;;;;;59.37;32.67;;;3.70;99.90;;;3.48;70.57;100822.69;5041219;28;20228;-63
2023/02/16 07:56:24;;;;;;;55.27;30.67;;;3.70;99.90;;;3.51;70.23;100830.44;5044793;28;20202;-64
2023/02/16 07:58:57;;;;;;;57.53;31.67;;;3.70;99.90;;;3.60;70.48;100826.44;5047355;28;20217;-65
2023/02/16 08:01:28;;;;;;;56.53;32.90;;;3.90;99.90;;;3.71;70.77;100821.66;5039177;28;20202;-68
2023/02/16 08:03:58;;;;;;;53.33;32.57;;;4.00;99.90;;;3.82;69.90;100814.31;5046506;28;20205;-63
2023/02/16 08:06:26;;;;;;;49.27;29.37;;;4.10;99.90;;;3.96;69.01;100818.13;5051157;28;20206;-64
2023/02/16 08:08:55;;;;;;;57.13;31.93;;;4.20;99.90;;;4.06;69.18;100824.34;5049635;28;20248;-66
2023/02/16 08:11:25;;;;;;;54.03;30.90;;;4.30;99.90;;;4.15;68.14;100814.38;5044144;28;20240;-64
2023/02/16 08:13:56;;;;;;;52.53;30.20;;;4.40;99.90;;;4.20;67.35;100809.38;5049734;28;20198;-66
2023/02/16 08:16:27;;;;;;;54.57;31.20;;;4.40;99.90;;;4.27;67.05;100809.63;5048983;28;20244;-66
2023/02/16 08:18:57;;;;;;;52.37;31.63;;;4.40;99.90;;;4.38;67.42;100809.88;5050083;28;20286;-64
2023/02/16 08:21:30;;;;;;;52.63;30.93;;;4.60;99.90;;;4.49;67.24;100802.50;5048785;28;20226;-65
2023/02/16 08:24:01;;;;;;;53.80;30.67;;;4.70;99.90;;;4.63;66.84;100805.41;5051380;28;20198;-66
2023/02/16 08:26:38;;;;;;;51.47;30.57;;;4.90;99.90;;;4.78;65.80;100806.63;5042183;28;20198;-63
2023/02/16 08:29:11;;;;;;;51.13;29.97;;;5.00;99.90;;;4.89;65.91;100809.44;5046145;28;21430;-66
2023/02/16 08:31:40;;;;;;;53.83;30.87;;;5.20;99.90;;;5.00;65.02;100813.09;5045818;28;20214;-64
2023/02/16 08:34:10;;;;;;;53.80;30.87;;;5.30;99.90;;;5.18;64.71;100815.22;5052883;28;20265;-66
2023/02/16 08:36:40;;;;;;;50.47;29.80;;;5.40;99.90;;;5.36;64.15;100811.38;5043633;28;20213;-65
2023/02/16 08:39:13;;;;;;;52.17;30.10;;;5.60;99.90;;;5.50;63.71;100815.09;5045578;28;20648;-69
2023/02/16 08:41:44;;;;;;;47.57;28.30;;;5.80;99.90;;;5.70;63.14;100812.94;5049161;28;20621;-68
2023/02/16 08:44:16;;;;;;;48.83;30.17;;;6.00;99.90;;;5.89;63.23;100814.16;5050745;28;20297;-69
2023/02/16 08:46:46;;;;;;;49.87;30.90;;;6.20;99.90;;;6.04;62.00;100810.25;5049479;28;20700;-71
2023/02/16 08:49:17;;;;;;;54.60;30.87;;;6.40;99.90;;;6.25;61.40;100814.03;5060938;28;20202;-71
2023/02/16 08:51:53;;;;;;;49.83;30.40;;;6.50;99.90;;;6.43;60.70;100810.94;5053538;28;20210;-71
2023/02/16 08:54:25;;;;;;;50.20;28.83;;;6.70;99.90;;;6.56;59.67;100815.47;5057751;28;20236;-70
2023/02/16 08:56:54;;;;;;;50.17;30.20;;;6.80;99.90;;;6.62;59.66;100807.84;5060468;28;20206;-82
2023/02/16 08:59:26;;;;;;;53.83;30.67;;;6.80;99.90;;;6.85;59.61;100810.81;5062473;28;20206;-70
2023/02/16 09:01:57;;;;;;;52.17;30.30;;;7.10;99.90;;;7.08;58.56;100802.63;5052855;28;20628;-74
2023/02/16 09:04:28;;;;;;;54.40;31.10;;;7.30;99.90;;;7.23;58.12;100803.69;5055481;28;20206;-67
2023/02/16 09:06:58;;;;;;;48.30;30.17;;;7.40;99.90;;;7.34;58.05;100795.31;5048055;28;20645;-69
2023/02/16 09:09:27;;;;;;;50.27;29.83;;;7.70;99.90;;;7.63;58.63;100790.56;5036825;28;20533;-76
2023/02/16 09:11:56;;;;;;;47.90;29.63;;;8.00;99.90;;;8.36;57.43;100795.63;5040046;28;20229;-70
2023/02/16 09:14:26;;;;;;;49.20;29.53;;;8.70;99.90;;;9.40;53.61;100788.72;5048106;28;20708;-70
2023/02/16 09:16:55;;;;;;;48.90;30.93;;;9.60;99.90;;;10.37;50.39;100789.91;5047143;28;20214;-71
2023/02/16 09:19:24;;;;;;;47.83;30.63;;;10.40;99.90;;;11.38;47.87;100782.09;5044639;28;20224;-69
2023/02/16 09:21:55;;;;;;;46.93;29.67;;;11.20;99.90;;;12.37;45.16;100787.63;5042821;28;20206;-69
2023/02/16 09:24:24;;;;;;;48.87;30.70;;;12.30;99.90;;;13.04;43.17;100779.34;5046277;28;20208;-72
2023/02/16 09:26:52;;;;;;;46.50;29.57;;;13.00;99.60;;;13.66;41.38;100787.28;5049833;28;20213;-71
2023/02/16 09:29:21;;;;;;;46.07;30.20;;;13.60;96.50;;;14.14;39.68;100775.44;5047359;28;20702;-69
2023/02/16 09:31:51;;;;;;;44.03;29.17;;;14.00;93.50;;;14.90;39.26;100773.34;5041769;28;20291;-68
2023/02/16 09:34:22;;;;;;;46.67;30.47;;;15.00;91.70;;;15.57;37.36;100775.56;5051367;28;20202;-70
2023/02/16 09:36:51;;;;;;;42.47;30.37;;;15.60;88.50;;;16.49;35.47;100771.78;5053395;28;20228;-67
2023/02/16 09:39:20;;;;;;;45.07;31.03;;;16.60;81.70;;;17.01;33.55;100769.63;5044715;28;20208;-67
2023/02/16 09:42:11;;;;;;;44.90;31.30;;;17.00;76.20;;;17.36;33.13;100774.75;5052498;28;20563;-69
2023/02/16 09:44:53;;;;;;;44.13;29.80;;;17.30;72.80;;;17.49;32.52;100777.88;5041657;28;20206;-67
2023/02/16 09:47:28;;;;;;;45.97;30.70;;;17.40;70.50;;;17.24;32.77;100769.91;5057278;28;20202;-70
2023/02/16 09:49:58;;;;;;;46.08;30.98;;;17.30;69.60;;;17.34;32.90;100775.69;5042874;28;20193;-66
2023/02/16 09:52:35;;;;;;;43.70;30.83;;;17.40;69.10;;;17.64;32.24;100774.00;5044413;28;20279;-69
2023/02/16 09:55:11;;;;;;;46.08;32.20;;;17.60;67.80;;;18.16;31.45;100769.84;5042928;28;20283;-71
2023/02/16 09:57:56;;;;;;;50.00;33.20;;;18.20;66.40;;;18.73;30.12;100768.88;5041138;28;20600;-67
2023/02/16 10:00:43;;;;;;;45.67;31.42;;;18.80;64.00;;;19.17;29.34;100773.47;5043735;28;20198;-70
2023/02/16 10:03:33;;;;;;;45.40;30.58;;;19.20;60.90;;;19.94;28.36;100772.34;5039979;28;20198;-67
2023/02/16 10:06:18;;;;;;;40.00;29.35;;;20.00;61.20;;;20.63;26.29;100760.91;5044578;28;20274;-69
2023/02/16 10:08:50;;;;;;;43.13;31.88;;;20.30;57.70;;;20.83;25.76;100767.91;5041192;28;20732;-69
2023/02/16 10:11:40;;;;;;;41.05;29.95;;;20.30;57.10;;;20.71;25.63;100764.91;5042082;28;20241;-68
2023/02/16 10:14:22;;;;;;;45.70;31.27;;;20.00;56.00;;;20.95;26.34;100756.91;5048376;28;20209;-71
2023/02/16 10:16:57;;;;;;;45.30;32.20;;;20.50;57.30;;;21.10;25.95;100751.03;5043914;28;20263;-70
2023/02/16 10:19:39;;;;;;;41.72;31.08;;;20.70;56.30;;;21.10;25.71;100751.03;5045523;28;20666;-73
2023/02/16 10:22:14;;;;;;;44.63;30.67;;;20.70;56.10;;;20.87;25.31;100764.25;5046683;28;20974;-70
2023/02/16 10:24:55;;;;;;;41.40;31.23;;;20.30;55.00;;;20.71;25.72;100759.66;5042150;28;20647;-70
2023/02/16 10:27:28;;;;;;;43.50;31.10;;;20.20;55.90;;;21.34;25.56;100754.34;5040458;28;20566;-71
2023/02/16 10:29:57;;;;;;;44.03;30.83;;;20.80;55.60;;;21.77;24.90;100747.16;5042261;28;20218;-72
2023/02/16 10:32:29;;;;;;;43.33;32.42;;;20.90;55.30;;;22.01;24.67;100744.28;5044764;28;20244;-69
2023/02/16 10:35:12;;;;;;;43.42;30.55;;;21.40;54.60;;;22.26;24.07;100741.34;5044516;28;20302;-68
2023/02/16 10:37:58;;;;;;;41.75;31.20;;;21.50;53.80;;;22.97;23.84;100739.50;5044954;28;20661;-69
2023/02/16 10:40:36;;;;;;;40.95;29.30;;;22.20;54.00;;;23.62;22.95;100740.41;5044895;28;20670;-68
2023/02/16 10:43:14;;;;;;;42.13;31.80;;;22.90;52.20;;;24.10;22.51;100743.06;5045667;28;20209;-70
2023/02/16 10:45:50;;;;;;;38.72;28.73;;;23.40;51.50;;;24.52;21.07;100729.25;5048334;28;20206;-71
2023/02/16 10:48:21;;;;;;;38.30;29.55;;;23.60;49.70;;;24.89;20.98;100719.13;5048935;28;20214;-70
2023/02/16 10:50:58;;;;;;;37.50;29.67;;;24.10;50.40;;;25.09;21.10;100717.06;5041790;28;20551;-70
2023/02/16 10:53:39;;;;;;;38.15;29.45;;;24.40;49.50;;;25.25;20.50;100710.75;5050710;28;20283;-70
2023/02/16 10:56:48;;;;;;;38.70;28.85;;;24.50;49.20;;;25.37;20.18;100703.91;5043359;28;20236;-70
2023/02/16 10:59:21;;;;;;;37.50;28.45;;;24.80;48.30;;;25.37;20.36;100706.53;5044269;28;20222;-69
2023/02/16 11:01:52;;;;;;;38.28;30.10;;;24.80;48.20;;;25.64;20.29;100695.16;5042118;28;20292;-71
2023/02/16 11:04:38;;;;;;;40.13;29.10;;;25.00;47.80;;;25.69;20.08;100703.63;5044440;28;20237;-72
2023/02/16 11:07:11;;;;;;;39.33;29.55;;;25.10;47.40;;;25.41;19.90;100699.28;5041321;28;20212;-73
2023/02/16 11:09:42;;;;;;;36.70;27.83;;;24.90;47.40;;;25.05;20.05;100693.50;5048146;28;20225;-71
2023/02/16 11:12:27;;;;;;;35.65;28.70;;;24.50;47.10;;;24.41;20.67;100692.09;5044785;28;20234;-69
2023/02/16 11:15:02;;;;;;;40.28;30.20;;;24.10;47.80;;;23.77;21.45;100709.78;5050494;28;20213;-67
2023/02/16 11:17:33;;;;;;;37.95;28.77;;;23.50;48.20;;;23.40;22.08;100703.06;5054301;28;20658;-72